ADDS METAR Data INFO
IDs: Format: Raw Decoded Include TAF

Data at: 1048 UTC 19 Oct 2017

KLAS 190956Z 23003KT 10SM BKN170 BKN220 21/M05 A2988 RMK AO2 SLP099 T02061050
KLAS 190856Z 29004KT 10SM BKN170 BKN220 20/M05 A2989 RMK AO2 SLP103 T02001050 56008
KLAS 190756Z 00000KT 10SM FEW120 BKN170 21/M08 A2989 RMK AO2 SLP103 T02111083 402780161
KLAS 190656Z 21004KT 10SM FEW120 BKN160 22/M09 A2990 RMK AO2 SLP107 T02221094
KLAS 190556Z 19005KT 10SM FEW120 BKN160 23/M09 A2992 RMK AO2 SLP111 T02281089 10278 20228 58008
KLAS 190456Z 18004KT 10SM BKN120 BKN150 23/M08 A2993 RMK AO2 SLP116 T02331083
KLAS 190356Z 23004KT 10SM SCT110 BKN150 BKN220 24/M08 A2994 RMK AO2 SLP118 T02441078
KLAS 190256Z 20004KT 10SM FEW120 BKN150 BKN220 25/M08 A2994 RMK AO2 SLP122 T02501078 56005
KLAS 190156Z 00000KT 10SM SCT120 BKN150 BKN220 25/M08 A2995 RMK AO2 SLP124 T02501078
KLAS 190056Z 00000KT 10SM SCT120 BKN150 BKN220 27/M10 A2995 RMK AO2 SLP123 T02721100
KLAS 182356Z 00000KT 10SM SCT120 BKN150 BKN220 28/M12 A2996 RMK AO2 SLP126 T02781117 10278 20239 56011
KLAS 182256Z 00000KT 10SM BKN150 BKN200 BKN250 27/M12 A2997 RMK AO2 SLP130 T02721117
KLAS 182156Z 00000KT 10SM SCT150 BKN200 BKN250 27/M12 A2998 RMK AO2 SLP132 T02721117
KLAS 182056Z 34004KT 10SM SCT150 BKN200 BKN250 27/M11 A2999 RMK AO2 SLP138 T02671106 58018
KLAS 181956Z 04004KT 10SM BKN150 BKN200 26/M08 A3002 RMK AO2 SLP149 T02561083
KLAS 181856Z 07005KT 10SM SCT160 BKN200 BKN250 24/M06 A3005 RMK AO2 SLP156 T02441061
KLAS 181756Z 07003KT 10SM FEW160 SCT200 BKN250 24/M08 A3005 RMK AO2 SLP157 T02441083 10244 20161 51007
KLAS 181656Z 00000KT 10SM FEW160 SCT200 BKN250 22/M06 A3005 RMK AO2 SLP159 T02171061
KLAS 181556Z 00000KT 10SM FEW160 BKN200 BKN250 21/M06 A3004 RMK AO2 SLP155 FU DSNT W VIRGA DSNT NE T02061056
KLAS 181456Z 00000KT 10SM FEW180 BKN250 17/M07 A3003 RMK AO2 SLP151 VIRGA N T01721072 53010
KLAS 181356Z 19004KT 10SM FEW180 BKN250 18/M08 A3001 RMK AO2 SLP144 VIRGA DSNT NW-N T01781078
KLAS 181256Z 21004KT 10SM SCT250 17/M08 A3000 RMK AO2 SLP141 T01671083
KLAS 181156Z 19004KT 10SM SCT250 17/M07 A3000 RMK AO2 SLP138 T01671072 10228 20167 53002
KLAS 181056Z 21003KT 10SM FEW250 18/M08 A2999 RMK AO2 SLP134 T01781078
KLAS 180956Z 27006KT 10SM FEW250 18/M07 A2999 RMK AO2 SLP136 T01781072
KLAS 180856Z 00000KT 10SM FEW250 18/M09 A2999 RMK AO2 SLP136 T01781089 56004
KLAS 180756Z 19005KT 10SM FEW250 19/M06 A2999 RMK AO2 SLP137 T01891061 403000133
KLAS 180656Z 21006KT 10SM FEW180 SCT250 20/M06 A2999 RMK AO2 SLP137 T02001061
KLAS 180556Z 27006KT 10SM FEW180 BKN250 21/M04 A3000 RMK AO2 SLP142 T02061044 10294 20206 50003
KLAS 180456Z 28006KT 10SM FEW180 BKN250 22/M05 A3001 RMK AO2 SLP144 T02171050
KLAS 180356Z 19005KT 10SM FEW180 BKN250 23/M07 A3000 RMK AO2 SLP140 T02331067
KLAS 180256Z 22003KT 10SM FEW180 BKN250 25/M08 A2999 RMK AO2 SLP140 T02501078 53001
KLAS 180156Z 00000KT 10SM FEW180 BKN250 26/M09 A2999 RMK AO2 SLP141 T02611089
KLAS 180056Z 00000KT 10SM FEW180 BKN250 28/M09 A2998 RMK AO2 SLP135 T02781089
KLAS 172356Z 00000KT 10SM SCT250 30/M12 A2999 RMK AO2 SLP137 T03001117 10300 20228 56019
KLAS 172256Z 01005KT 10SM SCT250 30/M11 A3001 RMK AO2 SLP143 T03001111